sensor_id;sensor_type;location;lat;lon;timestamp;P1;durP1;ratioP1;P2;durP2;ratioP2
69036;SDS011;58547;51.690;5.186;2022-08-19T00:01:48;10.60;;;8.18;;
69036;SDS011;58547;51.690;5.186;2022-08-19T00:04:16;10.73;;;7.95;;
69036;SDS011;58547;51.690;5.186;2022-08-19T00:06:44;8.23;;;6.65;;
69036;SDS011;58547;51.690;5.186;2022-08-19T00:09:13;8.70;;;7.45;;
69036;SDS011;58547;51.690;5.186;2022-08-19T00:11:40;10.90;;;8.50;;
69036;SDS011;58547;51.690;5.186;2022-08-19T00:14:06;10.15;;;8.45;;
69036;SDS011;58547;51.690;5.186;2022-08-19T00:16:34;10.93;;;9.20;;
69036;SDS011;58547;51.690;5.186;2022-08-19T00:19:00;10.98;;;9.70;;
69036;SDS011;58547;51.690;5.186;2022-08-19T00:21:26;15.02;;;11.07;;
69036;SDS011;58547;51.690;5.186;2022-08-19T00:23:52;18.10;;;12.13;;
69036;SDS011;58547;51.690;5.186;2022-08-19T00:26:19;16.02;;;12.43;;
69036;SDS011;58547;51.690;5.186;2022-08-19T00:28:45;14.68;;;10.15;;
69036;SDS011;58547;51.690;5.186;2022-08-19T00:31:11;16.27;;;12.10;;
69036;SDS011;58547;51.690;5.186;2022-08-19T00:33:36;17.00;;;12.15;;
69036;SDS011;58547;51.690;5.186;2022-08-19T00:36:03;15.63;;;12.55;;
69036;SDS011;58547;51.690;5.186;2022-08-19T00:38:31;14.35;;;11.55;;
69036;SDS011;58547;51.690;5.186;2022-08-19T00:40:57;15.32;;;12.10;;
69036;SDS011;58547;51.690;5.186;2022-08-19T00:43:24;17.05;;;12.73;;
69036;SDS011;58547;51.690;5.186;2022-08-19T00:45:51;15.77;;;11.25;;
69036;SDS011;58547;51.690;5.186;2022-08-19T00:48:17;14.40;;;11.02;;
69036;SDS011;58547;51.690;5.186;2022-08-19T00:50:44;17.27;;;13.60;;
69036;SDS011;58547;51.690;5.186;2022-08-19T00:53:13;15.60;;;12.55;;
69036;SDS011;58547;51.690;5.186;2022-08-19T00:55:42;17.23;;;12.43;;
69036;SDS011;58547;51.690;5.186;2022-08-19T00:58:15;17.48;;;13.63;;
69036;SDS011;58547;51.690;5.186;2022-08-19T01:00:43;17.58;;;13.98;;
69036;SDS011;58547;51.690;5.186;2022-08-19T01:03:11;16.67;;;11.85;;
69036;SDS011;58547;51.690;5.186;2022-08-19T01:05:39;20.15;;;14.00;;
69036;SDS011;58547;51.690;5.186;2022-08-19T01:08:07;17.30;;;12.13;;
69036;SDS011;58547;51.690;5.186;2022-08-19T01:10:37;16.75;;;13.98;;
69036;SDS011;58547;51.690;5.186;2022-08-19T01:13:06;20.35;;;14.02;;
69036;SDS011;58547;51.690;5.186;2022-08-19T01:15:34;19.50;;;14.90;;
69036;SDS011;58547;51.690;5.186;2022-08-19T01:18:06;17.58;;;12.90;;
69036;SDS011;58547;51.690;5.186;2022-08-19T01:20:35;18.60;;;14.40;;
69036;SDS011;58547;51.690;5.186;2022-08-19T01:23:00;21.48;;;15.77;;
69036;SDS011;58547;51.690;5.186;2022-08-19T01:25:28;18.42;;;14.32;;
69036;SDS011;58547;51.690;5.186;2022-08-19T01:27:57;20.67;;;15.48;;
69036;SDS011;58547;51.690;5.186;2022-08-19T01:30:24;18.70;;;14.05;;
69036;SDS011;58547;51.690;5.186;2022-08-19T01:32:53;21.77;;;15.45;;
69036;SDS011;58547;51.690;5.186;2022-08-19T01:35:20;19.25;;;13.60;;
69036;SDS011;58547;51.690;5.186;2022-08-19T01:37:49;18.55;;;13.95;;
69036;SDS011;58547;51.690;5.186;2022-08-19T01:40:17;17.35;;;12.65;;
69036;SDS011;58547;51.690;5.186;2022-08-19T01:42:45;18.90;;;13.93;;
69036;SDS011;58547;51.690;5.186;2022-08-19T01:45:13;20.17;;;15.68;;
69036;SDS011;58547;51.690;5.186;2022-08-19T01:47:38;21.55;;;17.20;;
69036;SDS011;58547;51.690;5.186;2022-08-19T01:50:05;24.75;;;18.63;;
69036;SDS011;58547;51.690;5.186;2022-08-19T01:52:31;26.75;;;19.33;;
69036;SDS011;58547;51.690;5.186;2022-08-19T01:54:57;24.90;;;18.15;;
69036;SDS011;58547;51.690;5.186;2022-08-19T01:57:22;21.52;;;14.80;;
69036;SDS011;58547;51.690;5.186;2022-08-19T02:02:13;17.67;;;13.02;;
69036;SDS011;58547;51.690;5.186;2022-08-19T02:07:04;24.80;;;16.83;;
69036;SDS011;58547;51.690;5.186;2022-08-19T02:09:31;26.05;;;16.95;;
69036;SDS011;58547;51.690;5.186;2022-08-19T02:11:56;24.30;;;17.55;;
69036;SDS011;58547;51.690;5.186;2022-08-19T02:14:22;25.27;;;19.02;;
69036;SDS011;58547;51.690;5.186;2022-08-19T02:16:47;28.02;;;19.92;;
69036;SDS011;58547;51.690;5.186;2022-08-19T02:21:38;25.73;;;20.33;;
69036;SDS011;58547;51.690;5.186;2022-08-19T02:24:03;27.63;;;20.15;;
69036;SDS011;58547;51.690;5.186;2022-08-19T02:26:29;27.52;;;19.02;;
69036;SDS011;58547;51.690;5.186;2022-08-19T02:28:56;26.65;;;20.85;;
69036;SDS011;58547;51.690;5.186;2022-08-19T02:31:22;30.98;;;21.20;;
69036;SDS011;58547;51.690;5.186;2022-08-19T02:33:49;28.75;;;20.33;;
69036;SDS011;58547;51.690;5.186;2022-08-19T02:36:15;32.72;;;21.48;;
69036;SDS011;58547;51.690;5.186;2022-08-19T02:38:42;25.80;;;19.27;;
69036;SDS011;58547;51.690;5.186;2022-08-19T02:41:13;30.60;;;22.50;;
69036;SDS011;58547;51.690;5.186;2022-08-19T02:43:40;28.45;;;19.90;;
69036;SDS011;58547;51.690;5.186;2022-08-19T02:46:15;36.45;;;23.17;;
69036;SDS011;58547;51.690;5.186;2022-08-19T02:48:46;25.75;;;16.10;;
69036;SDS011;58547;51.690;5.186;2022-08-19T02:51:16;27.63;;;17.88;;
69036;SDS011;58547;51.690;5.186;2022-08-19T02:54:01;30.60;;;19.98;;
69036;SDS011;58547;51.690;5.186;2022-08-19T02:56:27;31.42;;;21.10;;
69036;SDS011;58547;51.690;5.186;2022-08-19T02:58:53;28.42;;;17.77;;
69036;SDS011;58547;51.690;5.186;2022-08-19T03:01:27;28.38;;;18.83;;
69036;SDS011;58547;51.690;5.186;2022-08-19T03:03:55;23.48;;;16.88;;
69036;SDS011;58547;51.690;5.186;2022-08-19T03:06:21;27.45;;;18.88;;
69036;SDS011;58547;51.690;5.186;2022-08-19T03:08:47;24.45;;;17.27;;
69036;SDS011;58547;51.690;5.186;2022-08-19T03:11:27;22.23;;;16.77;;
69036;SDS011;58547;51.690;5.186;2022-08-19T03:13:55;27.80;;;17.30;;
69036;SDS011;58547;51.690;5.186;2022-08-19T03:16:22;23.10;;;16.45;;
69036;SDS011;58547;51.690;5.186;2022-08-19T03:18:49;24.75;;;17.90;;
69036;SDS011;58547;51.690;5.186;2022-08-19T03:21:20;23.08;;;18.02;;
69036;SDS011;58547;51.690;5.186;2022-08-19T03:23:47;26.15;;;19.08;;
69036;SDS011;58547;51.690;5.186;2022-08-19T03:26:13;26.35;;;19.17;;
69036;SDS011;58547;51.690;5.186;2022-08-19T03:28:42;29.23;;;19.98;;
69036;SDS011;58547;51.690;5.186;2022-08-19T03:31:13;22.95;;;16.83;;
69036;SDS011;58547;51.690;5.186;2022-08-19T03:33:38;19.17;;;15.18;;
69036;SDS011;58547;51.690;5.186;2022-08-19T03:38:37;30.13;;;19.90;;
69036;SDS011;58547;51.690;5.186;2022-08-19T03:41:08;23.30;;;15.15;;
69036;SDS011;58547;51.690;5.186;2022-08-19T03:43:36;27.90;;;18.52;;
69036;SDS011;58547;51.690;5.186;2022-08-19T03:46:16;27.35;;;19.02;;
69036;SDS011;58547;51.690;5.186;2022-08-19T03:48:45;31.40;;;22.25;;
69036;SDS011;58547;51.690;5.186;2022-08-19T03:51:16;33.03;;;22.60;;
69036;SDS011;58547;51.690;5.186;2022-08-19T03:53:44;28.98;;;21.58;;
69036;SDS011;58547;51.690;5.186;2022-08-19T03:56:10;36.38;;;26.42;;
69036;SDS011;58547;51.690;5.186;2022-08-19T03:58:36;40.53;;;25.98;;
69036;SDS011;58547;51.690;5.186;2022-08-19T04:01:02;42.30;;;28.75;;
69036;SDS011;58547;51.690;5.186;2022-08-19T04:03:38;42.30;;;27.45;;
69036;SDS011;58547;51.690;5.186;2022-08-19T04:08:37;53.88;;;32.63;;
69036;SDS011;58547;51.690;5.186;2022-08-19T04:11:15;48.40;;;29.85;;
69036;SDS011;58547;51.690;5.186;2022-08-19T04:13:46;47.08;;;27.95;;
69036;SDS011;58547;51.690;5.186;2022-08-19T04:16:12;60.28;;;34.83;;
69036;SDS011;58547;51.690;5.186;2022-08-19T04:21:05;69.35;;;38.40;;
69036;SDS011;58547;51.690;5.186;2022-08-19T04:23:32;64.65;;;36.10;;
69036;SDS011;58547;51.690;5.186;2022-08-19T04:25:58;63.45;;;34.75;;
69036;SDS011;58547;51.690;5.186;2022-08-19T04:30:50;65.28;;;35.58;;
69036;SDS011;58547;51.690;5.186;2022-08-19T04:33:18;65.43;;;38.10;;
69036;SDS011;58547;51.690;5.186;2022-08-19T04:35:46;77.35;;;43.10;;
69036;SDS011;58547;51.690;5.186;2022-08-19T04:38:13;75.03;;;40.08;;
69036;SDS011;58547;51.690;5.186;2022-08-19T04:40:44;72.10;;;40.88;;
69036;SDS011;58547;51.690;5.186;2022-08-19T04:43:33;75.05;;;39.92;;
69036;SDS011;58547;51.690;5.186;2022-08-19T04:46:06;78.68;;;43.58;;
69036;SDS011;58547;51.690;5.186;2022-08-19T04:48:31;74.65;;;40.38;;
69036;SDS011;58547;51.690;5.186;2022-08-19T04:53:25;77.03;;;41.80;;
69036;SDS011;58547;51.690;5.186;2022-08-19T04:56:05;79.72;;;42.45;;
69036;SDS011;58547;51.690;5.186;2022-08-19T04:58:38;78.97;;;44.90;;
69036;SDS011;58547;51.690;5.186;2022-08-19T05:01:06;77.47;;;41.50;;
69036;SDS011;58547;51.690;5.186;2022-08-19T05:05:59;74.78;;;42.15;;
69036;SDS011;58547;51.690;5.186;2022-08-19T05:08:30;78.72;;;43.05;;
69036;SDS011;58547;51.690;5.186;2022-08-19T05:13:22;74.57;;;42.13;;
69036;SDS011;58547;51.690;5.186;2022-08-19T05:18:20;72.47;;;38.13;;
69036;SDS011;58547;51.690;5.186;2022-08-19T05:21:08;83.18;;;47.88;;
69036;SDS011;58547;51.690;5.186;2022-08-19T05:23:53;78.85;;;41.53;;
69036;SDS011;58547;51.690;5.186;2022-08-19T05:28:44;67.53;;;35.57;;
69036;SDS011;58547;51.690;5.186;2022-08-19T05:33:34;76.23;;;35.93;;
69036;SDS011;58547;51.690;5.186;2022-08-19T05:38:26;68.60;;;40.10;;
69036;SDS011;58547;51.690;5.186;2022-08-19T05:43:17;67.82;;;35.35;;
69036;SDS011;58547;51.690;5.186;2022-08-19T05:48:11;57.42;;;32.03;;
69036;SDS011;58547;51.690;5.186;2022-08-19T05:50:38;81.63;;;41.00;;
69036;SDS011;58547;51.690;5.186;2022-08-19T05:53:05;71.70;;;41.97;;
69036;SDS011;58547;51.690;5.186;2022-08-19T05:57:56;74.78;;;38.17;;
69036;SDS011;58547;51.690;5.186;2022-08-19T06:02:46;71.25;;;38.15;;
69036;SDS011;58547;51.690;5.186;2022-08-19T06:07:38;74.45;;;42.17;;
69036;SDS011;58547;51.690;5.186;2022-08-19T06:10:06;65.57;;;35.83;;
69036;SDS011;58547;51.690;5.186;2022-08-19T06:12:33;75.55;;;40.58;;
69036;SDS011;58547;51.690;5.186;2022-08-19T06:14:59;75.72;;;42.95;;
69036;SDS011;58547;51.690;5.186;2022-08-19T06:17:30;69.78;;;39.20;;
69036;SDS011;58547;51.690;5.186;2022-08-19T06:22:21;79.80;;;39.92;;
69036;SDS011;58547;51.690;5.186;2022-08-19T06:24:47;84.53;;;38.88;;
69036;SDS011;58547;51.690;5.186;2022-08-19T06:29:38;86.78;;;36.80;;
69036;SDS011;58547;51.690;5.186;2022-08-19T06:34:29;87.68;;;38.20;;
69036;SDS011;58547;51.690;5.186;2022-08-19T06:36:57;79.50;;;38.25;;
69036;SDS011;58547;51.690;5.186;2022-08-19T06:39:26;90.10;;;40.65;;
69036;SDS011;58547;51.690;5.186;2022-08-19T06:41:55;88.93;;;42.63;;
69036;SDS011;58547;51.690;5.186;2022-08-19T06:44:24;84.38;;;36.83;;
69036;SDS011;58547;51.690;5.186;2022-08-19T06:46:53;86.25;;;38.63;;
69036;SDS011;58547;51.690;5.186;2022-08-19T06:49:19;82.22;;;36.47;;
69036;SDS011;58547;51.690;5.186;2022-08-19T06:54:12;85.10;;;40.35;;
69036;SDS011;58547;51.690;5.186;2022-08-19T06:56:38;103.82;;;44.65;;
69036;SDS011;58547;51.690;5.186;2022-08-19T07:01:38;91.85;;;39.70;;
69036;SDS011;58547;51.690;5.186;2022-08-19T07:04:06;96.15;;;42.28;;
69036;SDS011;58547;51.690;5.186;2022-08-19T07:06:33;91.30;;;37.85;;
69036;SDS011;58547;51.690;5.186;2022-08-19T07:08:59;82.07;;;38.83;;
69036;SDS011;58547;51.690;5.186;2022-08-19T07:11:25;82.55;;;35.97;;
69036;SDS011;58547;51.690;5.186;2022-08-19T07:16:17;76.35;;;34.63;;
69036;SDS011;58547;51.690;5.186;2022-08-19T07:18:50;73.95;;;36.58;;
69036;SDS011;58547;51.690;5.186;2022-08-19T07:21:18;78.38;;;38.45;;
69036;SDS011;58547;51.690;5.186;2022-08-19T07:23:46;85.93;;;41.47;;
69036;SDS011;58547;51.690;5.186;2022-08-19T07:26:20;82.65;;;37.95;;
69036;SDS011;58547;51.690;5.186;2022-08-19T07:28:49;65.13;;;33.17;;
69036;SDS011;58547;51.690;5.186;2022-08-19T07:31:16;73.60;;;36.55;;
69036;SDS011;58547;51.690;5.186;2022-08-19T07:33:43;76.78;;;38.05;;
69036;SDS011;58547;51.690;5.186;2022-08-19T07:36:11;72.43;;;38.88;;
69036;SDS011;58547;51.690;5.186;2022-08-19T07:38:38;71.90;;;36.22;;
69036;SDS011;58547;51.690;5.186;2022-08-19T07:41:06;69.30;;;36.17;;
69036;SDS011;58547;51.690;5.186;2022-08-19T07:43:32;59.90;;;31.85;;
69036;SDS011;58547;51.690;5.186;2022-08-19T07:45:57;68.45;;;38.10;;
69036;SDS011;58547;51.690;5.186;2022-08-19T07:48:23;73.07;;;34.67;;
69036;SDS011;58547;51.690;5.186;2022-08-19T07:50:54;69.65;;;38.08;;
69036;SDS011;58547;51.690;5.186;2022-08-19T07:53:22;63.50;;;35.70;;
69036;SDS011;58547;51.690;5.186;2022-08-19T07:55:49;65.68;;;35.70;;
69036;SDS011;58547;51.690;5.186;2022-08-19T07:58:15;75.13;;;35.55;;
69036;SDS011;58547;51.690;5.186;2022-08-19T08:00:43;68.38;;;38.45;;
69036;SDS011;58547;51.690;5.186;2022-08-19T08:03:11;68.85;;;39.08;;
69036;SDS011;58547;51.690;5.186;2022-08-19T08:05:36;75.43;;;37.17;;
69036;SDS011;58547;51.690;5.186;2022-08-19T08:08:20;69.50;;;38.78;;
69036;SDS011;58547;51.690;5.186;2022-08-19T08:11:04;70.68;;;36.10;;
69036;SDS011;58547;51.690;5.186;2022-08-19T08:13:30;75.15;;;38.03;;
69036;SDS011;58547;51.690;5.186;2022-08-19T08:15:55;69.40;;;35.22;;
69036;SDS011;58547;51.690;5.186;2022-08-19T08:18:22;73.25;;;34.63;;
69036;SDS011;58547;51.690;5.186;2022-08-19T08:20:48;75.88;;;36.28;;
69036;SDS011;58547;51.690;5.186;2022-08-19T08:23:14;73.70;;;38.05;;
69036;SDS011;58547;51.690;5.186;2022-08-19T08:25:50;67.07;;;36.35;;
69036;SDS011;58547;51.690;5.186;2022-08-19T08:28:17;66.90;;;35.50;;
69036;SDS011;58547;51.690;5.186;2022-08-19T08:30:44;65.20;;;35.53;;
69036;SDS011;58547;51.690;5.186;2022-08-19T08:33:12;63.22;;;36.92;;
69036;SDS011;58547;51.690;5.186;2022-08-19T08:35:39;61.70;;;34.70;;
69036;SDS011;58547;51.690;5.186;2022-08-19T08:38:06;63.88;;;35.22;;
69036;SDS011;58547;51.690;5.186;2022-08-19T08:43:21;58.42;;;38.10;;
69036;SDS011;58547;51.690;5.186;2022-08-19T08:45:53;64.97;;;36.17;;
69036;SDS011;58547;51.690;5.186;2022-08-19T08:48:30;61.28;;;36.83;;
69036;SDS011;58547;51.690;5.186;2022-08-19T08:50:59;58.63;;;33.40;;
69036;SDS011;58547;51.690;5.186;2022-08-19T08:53:28;56.78;;;34.05;;
69036;SDS011;58547;51.690;5.186;2022-08-19T08:55:53;55.15;;;33.60;;
69036;SDS011;58547;51.690;5.186;2022-08-19T08:58:20;50.28;;;31.10;;
69036;SDS011;58547;51.690;5.186;2022-08-19T09:00:54;57.65;;;32.00;;
69036;SDS011;58547;51.690;5.186;2022-08-19T09:03:20;55.47;;;33.58;;
69036;SDS011;58547;51.690;5.186;2022-08-19T09:05:55;57.20;;;35.08;;
69036;SDS011;58547;51.690;5.186;2022-08-19T09:08:48;53.92;;;33.10;;
69036;SDS011;58547;51.690;5.186;2022-08-19T09:16:57;56.30;;;33.45;;
69036;SDS011;58547;51.690;5.186;2022-08-19T09:19:24;56.65;;;35.13;;
69036;SDS011;58547;51.690;5.186;2022-08-19T09:21:50;50.28;;;32.03;;
69036;SDS011;58547;51.690;5.186;2022-08-19T09:24:15;53.53;;;34.47;;
69036;SDS011;58547;51.690;5.186;2022-08-19T09:26:41;52.15;;;29.42;;
69036;SDS011;58547;51.690;5.186;2022-08-19T09:29:08;51.38;;;30.45;;
69036;SDS011;58547;51.690;5.186;2022-08-19T09:31:34;47.00;;;28.92;;
69036;SDS011;58547;51.690;5.186;2022-08-19T09:34:00;46.83;;;29.98;;
69036;SDS011;58547;51.690;5.186;2022-08-19T09:36:29;43.85;;;26.15;;
69036;SDS011;58547;51.690;5.186;2022-08-19T09:38:57;43.97;;;27.10;;
69036;SDS011;58547;51.690;5.186;2022-08-19T09:41:25;44.78;;;27.58;;
69036;SDS011;58547;51.690;5.186;2022-08-19T09:43:52;37.08;;;25.35;;
69036;SDS011;58547;51.690;5.186;2022-08-19T09:46:20;42.97;;;28.05;;
69036;SDS011;58547;51.690;5.186;2022-08-19T09:48:46;37.45;;;24.75;;
69036;SDS011;58547;51.690;5.186;2022-08-19T09:51:18;38.78;;;24.20;;
69036;SDS011;58547;51.690;5.186;2022-08-19T09:53:49;40.17;;;25.98;;
69036;SDS011;58547;51.690;5.186;2022-08-19T09:56:15;37.08;;;24.25;;
69036;SDS011;58547;51.690;5.186;2022-08-19T09:58:42;35.38;;;24.48;;
69036;SDS011;58547;51.690;5.186;2022-08-19T10:01:07;37.35;;;25.70;;
69036;SDS011;58547;51.690;5.186;2022-08-19T10:03:34;43.78;;;26.13;;
69036;SDS011;58547;51.690;5.186;2022-08-19T10:06:02;38.83;;;23.42;;
69036;SDS011;58547;51.690;5.186;2022-08-19T10:08:31;43.85;;;26.13;;
69036;SDS011;58547;51.690;5.186;2022-08-19T10:10:58;39.00;;;26.80;;
69036;SDS011;58547;51.690;5.186;2022-08-19T10:13:26;43.83;;;27.98;;
69036;SDS011;58547;51.690;5.186;2022-08-19T10:15:55;45.15;;;28.10;;
69036;SDS011;58547;51.690;5.186;2022-08-19T10:18:22;43.50;;;27.80;;
69036;SDS011;58547;51.690;5.186;2022-08-19T10:20:49;55.53;;;29.83;;
69036;SDS011;58547;51.690;5.186;2022-08-19T10:23:16;47.83;;;29.35;;
69036;SDS011;58547;51.690;5.186;2022-08-19T10:25:42;38.70;;;26.58;;
69036;SDS011;58547;51.690;5.186;2022-08-19T10:28:08;43.53;;;28.90;;
69036;SDS011;58547;51.690;5.186;2022-08-19T10:30:37;39.00;;;26.35;;
69036;SDS011;58547;51.690;5.186;2022-08-19T10:33:04;46.20;;;25.13;;
69036;SDS011;58547;51.690;5.186;2022-08-19T10:35:30;40.80;;;27.08;;
69036;SDS011;58547;51.690;5.186;2022-08-19T10:37:56;37.40;;;26.55;;
69036;SDS011;58547;51.690;5.186;2022-08-19T10:40:26;36.50;;;23.35;;
69036;SDS011;58547;51.690;5.186;2022-08-19T10:42:53;36.55;;;25.35;;
69036;SDS011;58547;51.690;5.186;2022-08-19T10:45:20;35.08;;;23.08;;
69036;SDS011;58547;51.690;5.186;2022-08-19T10:47:50;30.63;;;21.50;;
69036;SDS011;58547;51.690;5.186;2022-08-19T10:50:15;28.02;;;19.73;;
69036;SDS011;58547;51.690;5.186;2022-08-19T10:53:02;29.17;;;19.35;;
69036;SDS011;58547;51.690;5.186;2022-08-19T10:55:30;25.67;;;18.33;;
69036;SDS011;58547;51.690;5.186;2022-08-19T10:58:24;26.15;;;18.60;;
69036;SDS011;58547;51.690;5.186;2022-08-19T11:00:54;22.00;;;14.95;;
69036;SDS011;58547;51.690;5.186;2022-08-19T11:03:21;23.15;;;14.82;;
69036;SDS011;58547;51.690;5.186;2022-08-19T11:05:56;19.50;;;13.80;;
69036;SDS011;58547;51.690;5.186;2022-08-19T11:08:26;21.60;;;15.45;;
69036;SDS011;58547;51.690;5.186;2022-08-19T11:10:52;23.42;;;14.45;;
69036;SDS011;58547;51.690;5.186;2022-08-19T11:13:21;18.27;;;12.20;;
69036;SDS011;58547;51.690;5.186;2022-08-19T11:15:55;19.08;;;12.95;;
69036;SDS011;58547;51.690;5.186;2022-08-19T11:18:24;20.45;;;12.52;;
69036;SDS011;58547;51.690;5.186;2022-08-19T11:20:49;18.23;;;12.77;;
69036;SDS011;58547;51.690;5.186;2022-08-19T11:23:15;17.20;;;12.20;;
69036;SDS011;58547;51.690;5.186;2022-08-19T11:25:40;14.38;;;11.05;;
69036;SDS011;58547;51.690;5.186;2022-08-19T11:28:06;21.08;;;13.30;;
69036;SDS011;58547;51.690;5.186;2022-08-19T11:30:31;16.83;;;11.07;;
69036;SDS011;58547;51.690;5.186;2022-08-19T11:32:58;19.98;;;12.65;;
69036;SDS011;58547;51.690;5.186;2022-08-19T11:35:25;14.05;;;10.82;;
69036;SDS011;58547;51.690;5.186;2022-08-19T11:37:50;19.67;;;12.35;;
69036;SDS011;58547;51.690;5.186;2022-08-19T11:40:16;21.70;;;11.43;;
69036;SDS011;58547;51.690;5.186;2022-08-19T11:42:41;19.52;;;11.32;;
69036;SDS011;58547;51.690;5.186;2022-08-19T11:45:22;15.77;;;12.15;;
69036;SDS011;58547;51.690;5.186;2022-08-19T11:47:52;19.25;;;11.77;;
69036;SDS011;58547;51.690;5.186;2022-08-19T11:50:18;17.45;;;14.10;;
69036;SDS011;58547;51.690;5.186;2022-08-19T11:52:44;16.95;;;12.55;;
69036;SDS011;58547;51.690;5.186;2022-08-19T11:55:10;14.70;;;12.23;;
69036;SDS011;58547;51.690;5.186;2022-08-19T11:57:36;15.13;;;12.00;;
69036;SDS011;58547;51.690;5.186;2022-08-19T12:00:02;16.73;;;12.02;;
69036;SDS011;58547;51.690;5.186;2022-08-19T12:02:30;17.38;;;13.73;;
69036;SDS011;58547;51.690;5.186;2022-08-19T12:04:55;16.55;;;11.55;;
69036;SDS011;58547;51.690;5.186;2022-08-19T12:07:21;18.33;;;14.18;;
69036;SDS011;58547;51.690;5.186;2022-08-19T12:09:46;16.83;;;12.82;;
69036;SDS011;58547;51.690;5.186;2022-08-19T12:12:12;22.25;;;17.27;;
69036;SDS011;58547;51.690;5.186;2022-08-19T12:14:38;26.05;;;16.30;;
69036;SDS011;58547;51.690;5.186;2022-08-19T12:17:03;27.40;;;18.80;;
69036;SDS011;58547;51.690;5.186;2022-08-19T12:19:31;25.75;;;19.40;;
69036;SDS011;58547;51.690;5.186;2022-08-19T12:22:00;29.02;;;19.02;;
69036;SDS011;58547;51.690;5.186;2022-08-19T12:24:29;27.58;;;18.65;;
69036;SDS011;58547;51.690;5.186;2022-08-19T12:26:56;27.55;;;17.02;;
69036;SDS011;58547;51.690;5.186;2022-08-19T12:29:23;23.23;;;15.75;;
69036;SDS011;58547;51.690;5.186;2022-08-19T12:31:53;28.05;;;19.63;;
69036;SDS011;58547;51.690;5.186;2022-08-19T12:34:19;33.95;;;23.05;;
69036;SDS011;58547;51.690;5.186;2022-08-19T12:36:45;38.92;;;27.88;;
69036;SDS011;58547;51.690;5.186;2022-08-19T12:39:10;38.80;;;28.75;;
69036;SDS011;58547;51.690;5.186;2022-08-19T12:41:36;41.28;;;28.85;;
69036;SDS011;58547;51.690;5.186;2022-08-19T12:44:02;47.55;;;29.50;;
69036;SDS011;58547;51.690;5.186;2022-08-19T12:46:28;47.25;;;34.42;;
69036;SDS011;58547;51.690;5.186;2022-08-19T12:48:53;51.97;;;33.17;;
69036;SDS011;58547;51.690;5.186;2022-08-19T12:51:19;56.78;;;35.00;;
69036;SDS011;58547;51.690;5.186;2022-08-19T12:53:45;49.88;;;34.67;;
69036;SDS011;58547;51.690;5.186;2022-08-19T12:56:11;54.47;;;37.88;;
69036;SDS011;58547;51.690;5.186;2022-08-19T12:58:39;48.70;;;34.40;;
69036;SDS011;58547;51.690;5.186;2022-08-19T13:01:10;44.90;;;30.48;;
69036;SDS011;58547;51.690;5.186;2022-08-19T13:03:36;35.97;;;24.38;;
69036;SDS011;58547;51.690;5.186;2022-08-19T13:06:02;37.38;;;24.10;;
69036;SDS011;58547;51.690;5.186;2022-08-19T13:08:28;40.42;;;27.52;;
69036;SDS011;58547;51.690;5.186;2022-08-19T13:10:53;40.92;;;25.33;;
69036;SDS011;58547;51.690;5.186;2022-08-19T13:13:18;41.55;;;27.92;;
69036;SDS011;58547;51.690;5.186;2022-08-19T13:15:43;33.22;;;24.83;;
69036;SDS011;58547;51.690;5.186;2022-08-19T13:18:10;32.20;;;22.67;;
69036;SDS011;58547;51.690;5.186;2022-08-19T13:20:37;30.40;;;21.30;;
69036;SDS011;58547;51.690;5.186;2022-08-19T13:23:05;30.67;;;21.42;;
69036;SDS011;58547;51.690;5.186;2022-08-19T13:25:31;30.15;;;21.45;;
69036;SDS011;58547;51.690;5.186;2022-08-19T13:27:57;32.35;;;22.75;;
69036;SDS011;58547;51.690;5.186;2022-08-19T13:30:23;29.48;;;21.02;;
69036;SDS011;58547;51.690;5.186;2022-08-19T13:33:08;34.30;;;22.63;;
69036;SDS011;58547;51.690;5.186;2022-08-19T13:35:38;33.78;;;22.30;;
69036;SDS011;58547;51.690;5.186;2022-08-19T13:38:04;29.27;;;20.27;;
69036;SDS011;58547;51.690;5.186;2022-08-19T13:40:30;27.77;;;20.00;;
69036;SDS011;58547;51.690;5.186;2022-08-19T13:42:58;27.02;;;19.10;;
69036;SDS011;58547;51.690;5.186;2022-08-19T13:45:26;28.17;;;19.35;;
69036;SDS011;58547;51.690;5.186;2022-08-19T13:47:54;26.92;;;17.60;;
69036;SDS011;58547;51.690;5.186;2022-08-19T13:50:21;23.85;;;16.00;;
69036;SDS011;58547;51.690;5.186;2022-08-19T13:52:50;23.58;;;16.27;;
69036;SDS011;58547;51.690;5.186;2022-08-19T13:55:16;18.85;;;13.85;;
69036;SDS011;58547;51.690;5.186;2022-08-19T13:57:41;19.92;;;13.70;;
69036;SDS011;58547;51.690;5.186;2022-08-19T14:00:08;19.45;;;13.30;;
69036;SDS011;58547;51.690;5.186;2022-08-19T14:02:37;19.27;;;12.70;;
69036;SDS011;58547;51.690;5.186;2022-08-19T14:05:04;18.88;;;12.98;;
69036;SDS011;58547;51.690;5.186;2022-08-19T14:07:32;19.17;;;12.93;;
69036;SDS011;58547;51.690;5.186;2022-08-19T14:09:57;14.45;;;10.32;;
69036;SDS011;58547;51.690;5.186;2022-08-19T14:12:23;14.38;;;10.40;;
69036;SDS011;58547;51.690;5.186;2022-08-19T14:14:49;12.48;;;9.48;;
69036;SDS011;58547;51.690;5.186;2022-08-19T14:17:14;12.05;;;8.95;;
69036;SDS011;58547;51.690;5.186;2022-08-19T14:19:40;11.57;;;8.95;;
69036;SDS011;58547;51.690;5.186;2022-08-19T14:22:06;13.32;;;9.18;;
69036;SDS011;58547;51.690;5.186;2022-08-19T14:24:31;12.60;;;8.75;;
69036;SDS011;58547;51.690;5.186;2022-08-19T14:26:57;9.02;;;7.22;;
69036;SDS011;58547;51.690;5.186;2022-08-19T14:29:23;8.13;;;5.70;;
69036;SDS011;58547;51.690;5.186;2022-08-19T14:31:49;9.23;;;5.35;;
69036;SDS011;58547;51.690;5.186;2022-08-19T14:34:14;6.47;;;4.97;;
69036;SDS011;58547;51.690;5.186;2022-08-19T14:36:39;7.70;;;5.72;;
69036;SDS011;58547;51.690;5.186;2022-08-19T14:39:07;8.75;;;6.88;;
69036;SDS011;58547;51.690;5.186;2022-08-19T14:41:34;11.25;;;7.60;;
69036;SDS011;58547;51.690;5.186;2022-08-19T14:44:00;12.57;;;8.00;;
69036;SDS011;58547;51.690;5.186;2022-08-19T14:46:26;10.60;;;7.88;;
69036;SDS011;58547;51.690;5.186;2022-08-19T14:48:53;14.10;;;9.50;;
69036;SDS011;58547;51.690;5.186;2022-08-19T14:51:20;14.50;;;8.82;;
69036;SDS011;58547;51.690;5.186;2022-08-19T14:53:46;13.52;;;8.57;;
69036;SDS011;58547;51.690;5.186;2022-08-19T14:56:15;14.13;;;10.57;;
69036;SDS011;58547;51.690;5.186;2022-08-19T14:58:42;16.63;;;10.02;;
69036;SDS011;58547;51.690;5.186;2022-08-19T15:01:09;15.73;;;10.15;;
69036;SDS011;58547;51.690;5.186;2022-08-19T15:03:35;14.85;;;10.82;;
69036;SDS011;58547;51.690;5.186;2022-08-19T15:06:02;16.98;;;12.13;;
69036;SDS011;58547;51.690;5.186;2022-08-19T15:08:29;14.55;;;11.48;;
69036;SDS011;58547;51.690;5.186;2022-08-19T15:10:56;17.50;;;11.73;;
69036;SDS011;58547;51.690;5.186;2022-08-19T15:13:23;18.10;;;12.05;;
69036;SDS011;58547;51.690;5.186;2022-08-19T15:15:51;18.92;;;13.45;;
69036;SDS011;58547;51.690;5.186;2022-08-19T15:18:17;18.75;;;13.32;;
69036;SDS011;58547;51.690;5.186;2022-08-19T15:20:45;22.88;;;13.40;;
69036;SDS011;58547;51.690;5.186;2022-08-19T15:23:12;24.77;;;15.60;;
69036;SDS011;58547;51.690;5.186;2022-08-19T15:25:41;23.52;;;15.55;;
69036;SDS011;58547;51.690;5.186;2022-08-19T15:28:08;24.42;;;14.95;;
69036;SDS011;58547;51.690;5.186;2022-08-19T15:30:36;20.35;;;13.63;;
69036;SDS011;58547;51.690;5.186;2022-08-19T15:33:02;18.20;;;12.15;;
69036;SDS011;58547;51.690;5.186;2022-08-19T15:35:28;17.30;;;12.55;;
69036;SDS011;58547;51.690;5.186;2022-08-19T15:37:54;15.60;;;11.23;;